This is the latest recevied weather packets stored in our database for station/object WP3OF-2. If no packets are shown the sender has not sent any weather packets the latest 10 day(s).
| Time | Temp. | Humidity | Pressure | Rain* | Wind** | Luminosity | Snow |
|---|---|---|---|---|---|---|---|
| 1777393455 | 23.89° C | 85% | 1026.7 hPa | 0 mm | - | 626 W/m² | - |
| 1777393151 | 23.89° C | 82% | 1026.7 hPa | 0 mm | - | 671 W/m² | - |
| 1777392848 | 23.89° C | 85% | 1026.7 hPa | 0 mm | - | 800 W/m² | - |
| 1777392543 | 23.33° C | 85% | 1026.7 hPa | 0 mm | - | 976 W/m² | - |
| 1777392239 | 23.89° C | 85% | 1026.7 hPa | 0 mm | - | 628 W/m² | - |
| 1777391934 | 23.33° C | 85% | 1027.1 hPa | 0 mm | - | 844 W/m² | - |
| 1777391629 | 23.89° C | 87% | 1027.1 hPa | 0 mm | - | 568 W/m² | - |
| 1777391326 | 23.89° C | 88% | 1027.1 hPa | 0 mm | - | 568 W/m² | - |
| 1777391023 | 24.44° C | 84% | 1027.4 hPa | 0 mm | - | 633 W/m² | - |
| 1777390718 | 23.33° C | 87% | 1027.1 hPa | 0 mm | - | 1185 W/m² | - |
| 1777390416 | 23.33° C | 87% | 1027.1 hPa | 0 mm | - | 555 W/m² | - |
| 1777390112 | 22.78° C | 89% | 1027.4 hPa | 0 mm | - | 539 W/m² | - |
| 1777389808 | 23.33° C | 88% | 1027.1 hPa | 0 mm | - | 472 W/m² | - |
| 1777389505 | 23.33° C | 87% | 1027.4 hPa | 0 mm | - | 491 W/m² | - |
| 1777389202 | 23.33° C | 89% | 1027.4 hPa | 0 mm | - | 471 W/m² | - |
| 1777388900 | 23.89° C | 86% | 1027.1 hPa | 0 mm | - | 526 W/m² | - |
| 1777388590 | 22.78° C | 89% | 1027.4 hPa | 0 mm | - | 533 W/m² | - |
| 1777388287 | 22.78° C | 88% | 1027.4 hPa | 0 mm | - | 602 W/m² | - |
| 1777387982 | 22.22° C | 90% | 1027.4 hPa | 0 mm | - | 572 W/m² | - |
| 1777387678 | 23.33° C | 88% | 1027.4 hPa | 0 mm | - | 524 W/m² | - |
| 1777387374 | 22.78° C | 87% | 1027.4 hPa | 0 mm | - | 645 W/m² | - |
| 1777387069 | 23.33° C | 86% | 1027.1 hPa | 0 mm | - | 568 W/m² | - |
| 1777386766 | 23.89° C | 85% | 1027.4 hPa | 0 mm | - | 766 W/m² | - |
| 1777386463 | 23.89° C | 85% | 1027.1 hPa | 0 mm | - | 1132 W/m² | - |
| 1777386159 | 23.33° C | 85% | 1027.4 hPa | 0 mm | - | 788 W/m² | - |
* Rain latest hour (hover to see other rain measurements)
** Current wind speed in m/s (hover to see current wind gust speed)